KRBW

Lowcountry Regional Airport

Walterboro, South Carolina, USA
METAR KRBW 110455Z AUTO 00000KT 5SM BR BKN004 OVC009 03/03 A3015 RMK AO2
Observed Flight Rules
Dec-11 @ 04:55 UTC (20 minutes ago) Instrument Flight Rules
Visibility Clouds Conditions
5 miles
  • Broken at 400' AGL
  • Overcast at 900' AGL
  • Mist
Temperatures Readings
Current 3°C / 37°F
Dewpoint 3°C / 37°F
Humidity 100%
Altimeter 30.15" Hg
Pressure 1021 hPa
Elevation 31
METAR KRBW 110455Z AUTO 00000KT 5SM BR BKN004 OVC009 03/03 A3015 RMK AO2
Observed Flight Rules
Dec-11 @ 04:55 UTC
(20 minutes ago)
LIFR
Clouds
  • Broken at 400' AGL
  • Overcast at 900' AGL
Conditions
  • Mist
Temperature Dewpoint
3°C / 37°F 3°C / 37°F
Humidity Altimeter Pressure
100% 30.15" Hg 1021 hPa